Terminal Aerodrome Forecast
Issued by NWS

Home | Current Version | Previous Version | Text Only | Print | Product List | Glossary On
Versions: 1 2 3 4 5 6 7 8 9 10 11 12 13 14 15 16 17 18 19 20 21 22 23 24 25 26
485
FTUS46 KEKA 240004 CCB
TAFCEC
TAF COR
KCEC 240004Z 2400/2424 17023G32KT 6SM -RA BR FEW025 OVC040
      WS020/17050KT
      TEMPO 2400/2403 16018G25KT 5SM -RA BR
     FM240300 17025G35KT 6SM -RA BR SCT025 OVC040 WS020/17050KT
      TEMPO 2406/2409 4SM RA BR BKN020 OVC040
     FM240900 17025G35KT 4SM RA BR BKN020 OVC040 WS020/17050KT
     FM241100 17015G27KT 4SM -RA BR BKN015 OVC030
     FM241500 17010KT 5SM RA BR BKN010 OVC020
     FM241800 16008KT 6SM -RA FEW010 SCT025 OVC035=

USA.gov is the U.S. government's official web portal to all federal, state and local government web resources and services.